Time;durP1;ratioP1;P1;durP2;ratioP2;P2;SDS_P1;SDS_P2;PMS_P1;PMS_P2;Temp;Humidity;BMP_temperature;BMP_pressure;BME280_temperature;BME280_humidity;BME280_pressure;Samples;Min_cycle;Max_cycle;Signal;HPM_P1;HPM_P2
2022/07/10 00:00:42;;;;;;;0.90;0.90;;;27.70;69.90;;;;;;5124847;28;20461;-65
2022/07/10 00:03:14;;;;;;;0.90;0.90;;;27.90;68.40;;;;;;5124834;28;20456;-65
2022/07/10 00:05:45;;;;;;;1.20;1.10;;;28.00;66.90;;;;;;5123174;28;20799;-66
2022/07/10 00:08:15;;;;;;;0.90;0.80;;;28.10;67.60;;;;;;5125030;27;20457;-65
2022/07/10 00:10:48;;;;;;;0.80;0.60;;;28.20;67.20;;;;;;5124198;28;20460;-65
2022/07/10 00:13:19;;;;;;;1.70;1.40;;;28.10;66.60;;;;;;5124951;28;20460;-65
2022/07/10 00:15:49;;;;;;;0.80;0.80;;;27.90;68.60;;;;;;5123901;28;20485;-65
2022/07/10 00:18:20;;;;;;;0.97;0.97;;;27.90;68.30;;;;;;5124794;28;20455;-65
2022/07/10 00:20:51;;;;;;;1.03;1.03;;;27.80;67.80;;;;;;5107730;28;20456;-65
2022/07/10 00:23:22;;;;;;;1.07;1.00;;;27.60;68.70;;;;;;5110094;28;20451;-65
2022/07/10 00:25:54;;;;;;;0.93;0.93;;;27.60;69.40;;;;;;5123416;28;20451;-65
2022/07/10 00:28:25;;;;;;;1.10;1.10;;;27.70;68.90;;;;;;5092923;28;20458;-65
2022/07/10 00:30:58;;;;;;;1.10;1.00;;;27.70;68.50;;;;;;5124146;28;20461;-65
2022/07/10 00:33:30;;;;;;;0.87;0.87;;;27.40;69.00;;;;;;5124410;27;20460;-65
2022/07/10 00:36:01;;;;;;;1.30;1.20;;;27.20;68.00;;;;;;5122374;28;20489;-64
2022/07/10 00:38:32;;;;;;;1.50;1.40;;;26.90;70.50;;;;;;5123581;28;20460;-65
2022/07/10 00:41:04;;;;;;;1.30;1.20;;;26.80;71.40;;;;;;5123561;28;20456;-65
2022/07/10 00:43:53;;;;;;;2.17;1.53;;;26.60;70.90;;;;;;5124091;28;20474;-65
2022/07/10 00:46:25;;;;;;;1.50;1.40;;;26.40;72.50;;;;;;5122909;28;20974;-65
2022/07/10 00:48:57;;;;;;;1.43;1.33;;;26.50;72.80;;;;;;5123682;28;20977;-65
2022/07/10 00:51:29;;;;;;;1.33;1.23;;;26.70;73.20;;;;;;5122768;28;20459;-65
2022/07/10 00:54:01;;;;;;;1.23;1.13;;;26.80;72.70;;;;;;5121503;28;20569;-65
2022/07/10 00:56:34;;;;;;;1.40;1.30;;;26.80;71.90;;;;;;5122433;28;20484;-65
2022/07/10 00:59:06;;;;;;;0.80;0.80;;;26.90;72.10;;;;;;5123081;28;20477;-65
2022/07/10 01:01:37;;;;;;;1.10;1.10;;;26.90;73.60;;;;;;5123006;28;20465;-65
2022/07/10 01:04:07;;;;;;;0.70;0.70;;;26.90;72.50;;;;;;5123255;28;20484;-65
2022/07/10 01:06:38;;;;;;;1.13;1.03;;;26.90;70.20;;;;;;5121433;28;20450;-65
2022/07/10 01:09:09;;;;;;;1.20;1.10;;;26.90;72.50;;;;;;5123057;28;20444;-65
2022/07/10 01:11:42;;;;;;;1.33;1.23;;;26.90;72.20;;;;;;5122654;28;20463;-65
2022/07/10 01:14:14;;;;;;;1.00;1.00;;;26.80;73.40;;;;;;5105929;28;20463;-65
2022/07/10 01:16:44;;;;;;;0.90;0.90;;;26.80;74.10;;;;;;5122598;28;20606;-65
2022/07/10 01:19:15;;;;;;;1.63;1.53;;;26.90;74.30;;;;;;5123203;28;20464;-65
2022/07/10 01:21:48;;;;;;;1.13;1.10;;;26.80;73.80;;;;;;5121783;28;20529;-66
2022/07/10 01:24:19;;;;;;;0.97;0.97;;;26.80;74.00;;;;;;5123768;28;20950;-65
2022/07/10 01:26:50;;;;;;;1.30;1.20;;;26.80;74.10;;;;;;5121930;28;20457;-65
2022/07/10 01:29:21;;;;;;;1.40;1.30;;;26.70;74.10;;;;;;5123206;28;20514;-65
2022/07/10 01:31:52;;;;;;;1.10;1.00;;;26.40;75.20;;;;;;5117787;28;20474;-65
2022/07/10 01:34:26;;;;;;;1.47;1.37;;;26.20;76.70;;;;;;5122925;28;20460;-65
2022/07/10 01:36:58;;;;;;;1.57;1.47;;;26.20;76.30;;;;;;5121527;28;20487;-66
2022/07/10 01:39:29;;;;;;;14.70;13.70;;;26.10;75.80;;;;;;5123002;28;20508;-65
2022/07/10 01:42:00;;;;;;;45.90;41.60;;;26.10;76.70;;;;;;5122134;28;20452;-65
2022/07/10 01:44:31;;;;;;;119.13;106.03;;;26.00;76.70;;;;;;5122864;28;20452;-65
2022/07/10 01:47:02;;;;;;;26.57;23.63;;;26.00;77.50;;;;;;5122048;28;20455;-65
2022/07/10 01:49:34;;;;;;;8.97;8.17;;;26.00;78.30;;;;;;5122692;28;20464;-65
2022/07/10 01:52:07;;;;;;;10.50;9.67;;;26.10;79.50;;;;;;5121852;28;20444;-65
2022/07/10 01:54:37;;;;;;;1.80;1.70;;;26.10;77.50;;;;;;5121401;28;20482;-65
2022/07/10 01:57:08;;;;;;;1.33;1.20;;;26.10;77.30;;;;;;5122097;28;20463;-64
2022/07/10 01:59:39;;;;;;;1.03;0.90;;;25.90;77.20;;;;;;5122513;28;20597;-64
2022/07/10 02:02:10;;;;;;;1.37;1.27;;;25.90;78.30;;;;;;5122292;28;20807;-64
2022/07/10 02:04:45;;;;;;;1.13;1.07;;;25.80;77.80;;;;;;5121984;28;20519;-64
2022/07/10 02:07:22;;;;;;;0.97;0.97;;;25.60;77.20;;;;;;5121768;28;20453;-64
2022/07/10 02:09:52;;;;;;;1.40;1.30;;;25.50;79.60;;;;;;5102981;28;20434;-64
2022/07/10 02:12:23;;;;;;;1.53;1.43;;;25.40;78.00;;;;;;5121863;28;20450;-64
2022/07/10 02:14:56;;;;;;;1.60;1.50;;;25.30;78.70;;;;;;5122039;28;20472;-65
2022/07/10 02:17:27;;;;;;;1.00;1.00;;;25.30;79.80;;;;;;5121990;28;20474;-64
2022/07/10 02:19:59;;;;;;;1.00;0.90;;;25.10;79.40;;;;;;5122546;28;20876;-64
2022/07/10 02:22:31;;;;;;;1.00;1.00;;;25.10;79.50;;;;;;5115354;28;20526;-64
2022/07/10 02:25:02;;;;;;;1.70;1.60;;;25.00;79.60;;;;;;5126781;28;20472;-64
2022/07/10 02:27:33;;;;;;;1.20;1.10;;;25.10;80.80;;;;;;5125748;28;20458;-65
2022/07/10 02:30:03;;;;;;;1.17;1.17;;;25.00;79.40;;;;;;5126207;28;20548;-64
2022/07/10 02:32:34;;;;;;;1.30;1.20;;;24.90;79.20;;;;;;5125964;28;20483;-64
2022/07/10 02:35:06;;;;;;;1.27;1.17;;;24.90;79.40;;;;;;5125361;28;20446;-64
2022/07/10 02:37:38;;;;;;;1.20;1.10;;;24.80;79.60;;;;;;5126253;28;20454;-65
2022/07/10 02:40:12;;;;;;;0.90;0.90;;;24.60;79.60;;;;;;5125765;28;20450;-65
2022/07/10 02:42:43;;;;;;;1.17;1.07;;;24.50;80.40;;;;;;5126315;28;20449;-64
2022/07/10 02:45:14;;;;;;;1.00;0.90;;;24.40;81.20;;;;;;5125724;28;20469;-64
2022/07/10 02:47:45;;;;;;;1.00;1.00;;;24.40;81.70;;;;;;5125761;28;20452;-64
2022/07/10 02:50:16;;;;;;;1.27;1.17;;;24.30;81.60;;;;;;5125119;28;20440;-65
2022/07/10 02:52:48;;;;;;;1.20;1.10;;;24.10;82.00;;;;;;5122878;27;20454;-64
2022/07/10 02:55:19;;;;;;;1.10;1.00;;;24.00;81.90;;;;;;5121095;28;20470;-65
2022/07/10 02:57:50;;;;;;;1.23;1.17;;;23.80;82.60;;;;;;5125867;28;20448;-64
2022/07/10 03:00:21;;;;;;;1.30;1.20;;;23.60;82.90;;;;;;5125688;28;20484;-64
2022/07/10 03:02:52;;;;;;;1.27;1.17;;;23.50;84.80;;;;;;5125619;28;20453;-64
2022/07/10 03:05:22;;;;;;;1.63;1.53;;;23.40;83.70;;;;;;5124959;28;20511;-64
2022/07/10 03:07:55;;;;;;;1.13;1.03;;;23.40;84.20;;;;;;5125997;28;20437;-64
2022/07/10 03:10:26;;;;;;;1.20;1.10;;;23.20;84.00;;;;;;5125561;28;20445;-64
2022/07/10 03:12:57;;;;;;;1.20;1.10;;;23.10;83.90;;;;;;5125621;28;20921;-64
2022/07/10 03:15:28;;;;;;;1.00;1.00;;;22.90;84.60;;;;;;5125575;28;20929;-64
2022/07/10 03:17:59;;;;;;;1.47;1.37;;;22.90;85.70;;;;;;5125569;28;20474;-64
2022/07/10 03:20:30;;;;;;;0.87;0.87;;;22.80;85.90;;;;;;5124788;28;20453;-64
2022/07/10 03:23:03;;;;;;;1.23;1.10;;;22.70;86.30;;;;;;5126201;28;20442;-65
2022/07/10 03:25:33;;;;;;;1.40;1.30;;;22.80;86.20;;;;;;5125497;28;20464;-64
2022/07/10 03:28:04;;;;;;;1.30;1.07;;;22.70;86.20;;;;;;5125127;28;20558;-64
2022/07/10 03:30:35;;;;;;;1.10;1.10;;;22.50;86.70;;;;;;5124988;28;20452;-64
2022/07/10 03:33:06;;;;;;;1.40;1.30;;;22.40;87.80;;;;;;5107574;28;20461;-64
2022/07/10 03:35:37;;;;;;;1.03;1.03;;;22.40;87.80;;;;;;5124227;28;20438;-64
2022/07/10 03:38:09;;;;;;;1.50;1.30;;;22.40;88.10;;;;;;5125447;28;20456;-64
2022/07/10 03:40:40;;;;;;;2.00;1.37;;;22.20;87.80;;;;;;5124753;28;20533;-64
2022/07/10 03:43:11;;;;;;;1.27;1.17;;;22.10;88.50;;;;;;5125287;28;20454;-64
2022/07/10 03:45:41;;;;;;;1.50;1.40;;;22.10;88.90;;;;;;5125170;28;20461;-64
2022/07/10 03:48:13;;;;;;;1.70;1.60;;;22.10;89.40;;;;;;5124875;28;20456;-65
2022/07/10 03:50:43;;;;;;;1.50;1.40;;;22.00;89.40;;;;;;5123998;28;20436;-63
2022/07/10 03:53:16;;;;;;;1.63;1.10;;;22.10;89.40;;;;;;5117771;27;20921;-64
2022/07/10 03:55:47;;;;;;;1.30;1.20;;;21.90;90.10;;;;;;5119840;28;20453;-64
2022/07/10 03:58:16;;;;;;;1.87;1.77;;;21.90;90.40;;;;;;5124736;28;20446;-64
2022/07/10 04:00:47;;;;;;;1.70;1.60;;;21.80;90.30;;;;;;5124049;28;20456;-64
2022/07/10 04:03:21;;;;;;;1.63;1.53;;;21.70;90.40;;;;;;5124682;28;20450;-64
2022/07/10 04:05:51;;;;;;;1.27;1.17;;;21.60;90.90;;;;;;5123864;28;20529;-64
2022/07/10 04:08:24;;;;;;;1.50;1.40;;;21.60;91.00;;;;;;5124339;28;20435;-64
2022/07/10 04:10:55;;;;;;;1.63;1.47;;;21.50;90.90;;;;;;5124057;28;20450;-64
2022/07/10 04:13:25;;;;;;;1.37;1.27;;;21.50;91.50;;;;;;5124363;28;20471;-64
2022/07/10 04:15:56;;;;;;;1.63;1.50;;;21.40;91.30;;;;;;5123640;28;20458;-64
2022/07/10 04:18:27;;;;;;;1.63;1.53;;;21.30;91.70;;;;;;5123966;28;20456;-63
2022/07/10 04:20:58;;;;;;;1.50;1.40;;;21.20;92.10;;;;;;5092021;28;20513;-63
2022/07/10 04:23:30;;;;;;;1.40;1.30;;;21.10;92.20;;;;;;5124213;28;20446;-63
2022/07/10 04:26:01;;;;;;;1.60;1.50;;;21.00;92.60;;;;;;5123804;27;20456;-64
2022/07/10 04:28:32;;;;;;;2.20;2.03;;;21.00;92.70;;;;;;5124167;28;20433;-63
2022/07/10 04:31:03;;;;;;;1.67;1.57;;;20.90;93.00;;;;;;5122982;28;20494;-63
2022/07/10 04:33:34;;;;;;;2.10;1.90;;;20.80;92.90;;;;;;5124176;28;20461;-64
2022/07/10 04:36:05;;;;;;;1.80;1.30;;;20.70;93.00;;;;;;5123056;28;20504;-64
2022/07/10 04:38:37;;;;;;;2.03;1.90;;;20.60;93.20;;;;;;5123873;28;20460;-64
2022/07/10 04:41:09;;;;;;;1.60;1.50;;;20.50;93.60;;;;;;5098795;28;20479;-64
2022/07/10 04:43:39;;;;;;;1.20;1.10;;;20.40;93.70;;;;;;5123134;28;20462;-64
2022/07/10 04:46:10;;;;;;;1.77;1.67;;;20.40;93.80;;;;;;5123459;28;20984;-64
2022/07/10 04:48:41;;;;;;;2.00;1.90;;;20.30;94.00;;;;;;5124018;28;20456;-64
2022/07/10 04:51:12;;;;;;;1.33;1.23;;;20.30;94.20;;;;;;5094892;28;20459;-64
2022/07/10 04:53:44;;;;;;;2.00;1.80;;;20.20;94.50;;;;;;5117022;28;20481;-64
2022/07/10 04:56:17;;;;;;;1.80;1.70;;;20.20;94.50;;;;;;5122999;28;20432;-64
2022/07/10 04:58:48;;;;;;;1.40;1.30;;;20.20;94.70;;;;;;5123256;28;20446;-64
2022/07/10 05:01:21;;;;;;;1.70;1.60;;;20.10;95.00;;;;;;5109823;28;20451;-64
2022/07/10 05:03:52;;;;;;;1.40;1.30;;;20.00;95.10;;;;;;5123153;28;20470;-64
2022/07/10 05:06:24;;;;;;;1.10;1.10;;;19.90;95.60;;;;;;5122683;28;20498;-63
2022/07/10 05:08:57;;;;;;;2.40;2.30;;;19.80;95.90;;;;;;5123087;28;20424;-64
2022/07/10 05:11:28;;;;;;;2.00;1.90;;;19.70;96.30;;;;;;5122025;28;20453;-64
2022/07/10 05:13:58;;;;;;;1.37;1.27;;;19.60;96.70;;;;;;5116204;28;20458;-63
2022/07/10 05:16:29;;;;;;;2.50;2.37;;;19.60;97.10;;;;;;5122122;28;20452;-63
2022/07/10 05:19:00;;;;;;;1.87;1.70;;;19.60;97.30;;;;;;5122981;28;20434;-63
2022/07/10 05:21:31;;;;;;;1.90;1.57;;;19.50;97.60;;;;;;5121826;28;20449;-64
2022/07/10 05:24:03;;;;;;;1.17;1.10;;;19.50;98.00;;;;;;5123163;28;20933;-64
2022/07/10 05:26:36;;;;;;;1.50;1.40;;;19.50;98.20;;;;;;5123037;28;20420;-64
2022/07/10 05:29:07;;;;;;;1.83;1.73;;;19.40;98.70;;;;;;5123042;28;20468;-63
2022/07/10 05:31:40;;;;;;;1.90;1.80;;;19.30;99.30;;;;;;5108497;28;20455;-64
2022/07/10 05:34:11;;;;;;;2.07;1.70;;;19.30;99.70;;;;;;5122631;28;20429;-65
2022/07/10 05:36:42;;;;;;;1.60;1.50;;;19.30;99.90;;;;;;5121785;28;20442;-64
2022/07/10 05:39:14;;;;;;;2.00;1.80;;;19.30;99.90;;;;;;5122572;28;20521;-64
2022/07/10 05:41:45;;;;;;;1.77;1.50;;;19.30;99.90;;;;;;5121300;28;20430;-64
2022/07/10 05:44:19;;;;;;;1.20;1.10;;;19.20;99.90;;;;;;5109092;28;20460;-64
2022/07/10 05:46:50;;;;;;;1.20;1.10;;;19.30;99.90;;;;;;5122364;28;20424;-64
2022/07/10 05:49:21;;;;;;;1.70;1.60;;;19.20;99.90;;;;;;5122769;28;20424;-64
2022/07/10 05:51:52;;;;;;;1.30;1.20;;;19.10;99.90;;;;;;5121287;28;20525;-63
2022/07/10 05:54:24;;;;;;;3.40;1.57;;;19.10;99.90;;;;;;5121730;28;20553;-64
2022/07/10 05:56:55;;;;;;;1.57;1.47;;;19.00;99.90;;;;;;5121974;28;20453;-64
2022/07/10 05:59:25;;;;;;;1.47;1.20;;;19.00;99.90;;;;;;5122501;28;20544;-64
2022/07/10 06:01:56;;;;;;;1.83;1.73;;;19.00;99.90;;;;;;5121663;28;20757;-63
2022/07/10 06:04:27;;;;;;;1.40;1.30;;;18.90;99.90;;;;;;5122505;28;20416;-64
2022/07/10 06:06:58;;;;;;;1.60;1.50;;;18.80;99.90;;;;;;5121641;28;20545;-64
2022/07/10 06:09:31;;;;;;;1.40;1.30;;;18.70;99.90;;;;;;5122162;28;20843;-63
2022/07/10 06:12:02;;;;;;;1.50;1.40;;;18.70;99.90;;;;;;5121358;28;20530;-63
2022/07/10 06:14:32;;;;;;;1.40;1.30;;;18.70;99.90;;;;;;5121926;28;20498;-63
2022/07/10 06:17:03;;;;;;;4.23;1.70;;;18.70;99.90;;;;;;5121958;28;20427;-64
2022/07/10 06:19:34;;;;;;;1.17;1.10;;;18.60;99.90;;;;;;5122603;28;20415;-64
2022/07/10 06:24:55;;;;;;;1.40;1.30;;;18.50;99.90;;;;;;5122095;28;20424;-63
2022/07/10 06:27:25;;;;;;;1.60;1.50;;;18.50;99.90;;;;;;5121743;28;20460;-64
2022/07/10 06:29:57;;;;;;;1.50;1.40;;;18.40;99.90;;;;;;5122146;28;20439;-63
2022/07/10 06:32:28;;;;;;;1.57;1.47;;;18.40;99.90;;;;;;5121468;28;20992;-64
2022/07/10 06:34:59;;;;;;;1.67;1.43;;;18.30;99.90;;;;;;5121618;28;20515;-65
2022/07/10 06:37:29;;;;;;;2.27;2.07;;;18.30;99.90;;;;;;5121048;28;20412;-64
2022/07/10 06:40:02;;;;;;;1.83;1.70;;;18.20;99.90;;;;;;5119612;28;20424;-63
2022/07/10 06:42:33;;;;;;;1.47;1.20;;;18.20;99.90;;;;;;5121847;28;20458;-64
2022/07/10 06:45:04;;;;;;;1.47;1.37;;;18.20;99.90;;;;;;5121849;28;20446;-64
2022/07/10 06:50:29;;;;;;;1.27;1.17;;;18.20;99.90;;;;;;5121124;28;20431;-64
2022/07/10 06:53:01;;;;;;;1.40;1.30;;;18.10;99.90;;;;;;5089110;28;20520;-64
2022/07/10 06:55:33;;;;;;;1.73;1.37;;;18.10;99.90;;;;;;5121410;28;20861;-64
2022/07/10 06:58:04;;;;;;;1.43;1.33;;;18.10;99.90;;;;;;5122044;28;20487;-63
2022/07/10 07:00:35;;;;;;;1.77;1.53;;;18.00;99.90;;;;;;5121660;28;20424;-64
2022/07/10 07:03:06;;;;;;;1.47;1.37;;;18.00;99.90;;;;;;5116230;28;20516;-63
2022/07/10 07:05:38;;;;;;;1.50;1.40;;;18.00;99.90;;;;;;5120179;28;20543;-63
2022/07/10 07:08:09;;;;;;;1.40;1.30;;;17.90;99.90;;;;;;5124210;28;20453;-64
2022/07/10 07:10:41;;;;;;;2.00;1.87;;;17.90;99.90;;;;;;5123311;28;20424;-63
2022/07/10 07:13:12;;;;;;;1.87;1.67;;;17.80;99.90;;;;;;5125393;28;20423;-63
2022/07/10 07:15:50;;;;;;;1.60;1.50;;;17.80;99.90;;;;;;5124442;28;20444;-64
2022/07/10 07:18:22;;;;;;;1.90;1.63;;;17.80;99.90;;;;;;5125406;28;20455;-63
2022/07/10 07:23:40;;;;;;;2.07;1.80;;;17.70;99.90;;;;;;5125230;28;20413;-64
2022/07/10 07:26:12;;;;;;;1.60;1.50;;;17.70;99.90;;;;;;5125082;28;20456;-63
2022/07/10 07:28:43;;;;;;;1.57;1.47;;;17.70;99.90;;;;;;5124967;28;20532;-63
2022/07/10 07:31:17;;;;;;;1.97;1.63;;;17.60;99.90;;;;;;5124626;28;20513;-63
2022/07/10 07:33:48;;;;;;;1.60;1.50;;;17.60;99.90;;;;;;5124525;28;20445;-63
2022/07/10 07:36:19;;;;;;;1.97;1.60;;;17.60;99.90;;;;;;5123820;28;20435;-64
2022/07/10 07:38:50;;;;;;;1.50;1.40;;;17.60;99.90;;;;;;5125110;28;20893;-65
2022/07/10 07:41:23;;;;;;;1.10;1.10;;;17.60;99.90;;;;;;5124636;28;20442;-63
2022/07/10 07:43:54;;;;;;;1.73;1.63;;;17.50;99.90;;;;;;5109040;28;20425;-64
2022/07/10 07:46:24;;;;;;;1.53;1.40;;;17.50;99.90;;;;;;5124415;28;20449;-63
2022/07/10 07:48:55;;;;;;;1.50;1.40;;;17.40;99.90;;;;;;5125043;28;20794;-64
2022/07/10 07:51:26;;;;;;;1.73;1.30;;;17.30;99.90;;;;;;5123993;28;20615;-64
2022/07/10 07:53:57;;;;;;;1.30;1.20;;;17.30;99.90;;;;;;5124794;28;20477;-64
2022/07/10 07:56:29;;;;;;;3.10;2.00;;;17.30;99.90;;;;;;5124411;28;20436;-63
2022/07/10 07:59:00;;;;;;;1.83;1.30;;;17.20;99.90;;;;;;5124846;28;20481;-63
2022/07/10 08:01:31;;;;;;;1.50;1.40;;;17.10;99.90;;;;;;5123995;28;20453;-63
2022/07/10 08:04:02;;;;;;;2.13;1.93;;;17.10;99.90;;;;;;5124371;28;21199;-63
2022/07/10 08:06:38;;;;;;;2.07;1.63;;;17.10;99.90;;;;;;5123113;28;20424;-63
2022/07/10 08:09:09;;;;;;;1.40;1.30;;;17.00;99.90;;;;;;5124613;28;20496;-63
2022/07/10 08:11:42;;;;;;;1.57;1.47;;;16.90;99.90;;;;;;5124340;28;20457;-63
2022/07/10 08:14:12;;;;;;;1.10;1.00;;;16.90;99.90;;;;;;5109861;28;20447;-63
2022/07/10 08:16:43;;;;;;;1.40;1.30;;;16.90;99.90;;;;;;5103665;28;21020;-64
2022/07/10 08:19:14;;;;;;;1.43;1.33;;;16.80;99.90;;;;;;5103884;28;20508;-63
2022/07/10 08:21:45;;;;;;;1.30;1.20;;;16.80;99.90;;;;;;5116637;28;20459;-63
2022/07/10 08:24:16;;;;;;;1.50;1.40;;;16.80;99.90;;;;;;5116779;28;20445;-63
2022/07/10 08:26:48;;;;;;;1.50;1.40;;;16.70;99.90;;;;;;5123642;28;20450;-63
2022/07/10 08:29:19;;;;;;;1.40;1.30;;;16.70;99.90;;;;;;5123763;28;20484;-63
2022/07/10 08:31:50;;;;;;;1.50;1.40;;;16.70;99.90;;;;;;5123513;27;20454;-63
2022/07/10 08:34:21;;;;;;;1.60;1.50;;;16.70;99.90;;;;;;5092681;28;20525;-63
2022/07/10 08:36:52;;;;;;;1.90;1.50;;;16.60;99.90;;;;;;5122798;28;20427;-63
2022/07/10 08:39:22;;;;;;;1.73;1.63;;;16.60;99.90;;;;;;5124390;28;20458;-63
2022/07/10 08:41:55;;;;;;;1.30;1.20;;;16.50;99.90;;;;;;5123326;28;20449;-63
2022/07/10 08:44:26;;;;;;;1.60;1.50;;;16.50;99.90;;;;;;5123532;28;20456;-63
2022/07/10 08:46:57;;;;;;;1.57;1.47;;;16.50;99.90;;;;;;5122862;28;20431;-64
2022/07/10 08:49:30;;;;;;;1.67;1.57;;;16.50;99.90;;;;;;5123657;28;20480;-63
2022/07/10 08:52:05;;;;;;;1.50;1.40;;;16.40;99.90;;;;;;5122350;28;20490;-64
2022/07/10 08:54:38;;;;;;;1.60;1.43;;;16.40;99.90;;;;;;5123430;28;20504;-63
2022/07/10 08:57:12;;;;;;;1.60;1.47;;;16.40;99.90;;;;;;5123179;28;20488;-63
2022/07/10 08:59:42;;;;;;;1.77;1.63;;;16.30;99.90;;;;;;5123644;28;20491;-63
2022/07/10 09:02:13;;;;;;;2.37;1.30;;;16.30;99.90;;;;;;5122826;28;20453;-63
2022/07/10 09:04:45;;;;;;;1.37;1.27;;;16.30;99.90;;;;;;5122767;28;20471;-64
2022/07/10 09:07:17;;;;;;;2.37;2.17;;;16.40;99.90;;;;;;5122443;28;20448;-64
2022/07/10 09:09:55;;;;;;;1.63;1.40;;;16.30;99.90;;;;;;5115034;28;20464;-63
2022/07/10 09:12:27;;;;;;;1.80;1.40;;;16.20;99.90;;;;;;5093399;28;20453;-63
2022/07/10 09:15:17;;;;;;;2.07;1.80;;;16.20;99.90;;;;;;5122818;28;20460;-63
2022/07/10 09:17:55;;;;;;;1.30;1.20;;;16.20;99.90;;;;;;5122644;28;20476;-63
2022/07/10 09:20:32;;;;;;;1.93;1.73;;;16.00;99.90;;;;;;5119710;28;20521;-63
2022/07/10 09:23:17;;;;;;;5.00;1.70;;;15.90;99.90;;;;;;5123111;28;20427;-63
2022/07/10 09:25:49;;;;;;;1.80;1.70;;;15.90;99.90;;;;;;5122584;28;20475;-63
2022/07/10 09:28:23;;;;;;;1.63;1.53;;;15.70;99.90;;;;;;5122816;28;20446;-64
2022/07/10 09:30:54;;;;;;;1.93;1.60;;;15.70;99.90;;;;;;5122356;28;20435;-63
2022/07/10 09:33:29;;;;;;;1.97;1.87;;;15.80;99.90;;;;;;5122769;28;20776;-63
2022/07/10 09:36:10;;;;;;;1.50;1.40;;;15.80;99.90;;;;;;5121811;28;20792;-64
2022/07/10 09:39:00;;;;;;;2.07;1.87;;;15.80;99.90;;;;;;5090022;28;20826;-63
2022/07/10 09:41:32;;;;;;;1.50;1.40;;;15.80;99.90;;;;;;5122654;28;20450;-64
2022/07/10 09:44:06;;;;;;;2.03;1.90;;;15.70;99.90;;;;;;5113878;28;20464;-64
2022/07/10 09:46:38;;;;;;;1.60;1.50;;;15.70;99.90;;;;;;5121991;28;20441;-64
2022/07/10 09:49:10;;;;;;;2.03;1.93;;;15.60;99.90;;;;;;5123105;28;20750;-64
2022/07/10 09:51:42;;;;;;;1.50;1.40;;;15.60;99.90;;;;;;5121967;28;20454;-64
2022/07/10 09:54:19;;;;;;;2.33;2.17;;;15.50;99.90;;;;;;5122227;28;20802;-63
2022/07/10 09:56:51;;;;;;;1.63;1.53;;;15.50;99.90;;;;;;5121568;28;20509;-63
2022/07/10 09:59:24;;;;;;;1.87;1.67;;;15.60;99.90;;;;;;5109178;28;20497;-64
2022/07/10 10:01:56;;;;;;;1.60;1.50;;;15.50;99.90;;;;;;5122298;28;20473;-64
2022/07/10 10:04:31;;;;;;;2.00;1.70;;;15.30;99.90;;;;;;5122094;28;20509;-63
2022/07/10 10:07:13;;;;;;;2.13;1.97;;;15.30;99.90;;;;;;5121260;28;20940;-63
2022/07/10 10:09:53;;;;;;;1.43;1.27;;;15.20;99.90;;;;;;5122637;28;20544;-63
2022/07/10 10:12:32;;;;;;;1.77;1.63;;;15.20;99.90;;;;;;5122181;28;20557;-64
2022/07/10 10:15:06;;;;;;;1.77;1.67;;;15.10;99.90;;;;;;5122474;28;20536;-63
2022/07/10 10:17:39;;;;;;;2.13;1.97;;;15.20;99.90;;;;;;5122175;28;20472;-64
2022/07/10 10:23:00;;;;;;;2.20;2.00;;;15.20;99.90;;;;;;5109863;28;20445;-63
2022/07/10 10:25:35;;;;;;;3.40;1.33;;;15.20;99.90;;;;;;5122180;28;20528;-63
2022/07/10 10:28:09;;;;;;;1.93;1.73;;;15.20;99.90;;;;;;5122163;28;20473;-63
2022/07/10 10:30:48;;;;;;;2.30;1.70;;;15.10;99.90;;;;;;5121772;28;20818;-64
2022/07/10 10:33:51;;;;;;;2.27;2.07;;;15.10;99.90;;;;;;5117136;28;20450;-63
2022/07/10 10:36:47;;;;;;;1.90;1.80;;;15.10;99.90;;;;;;5121189;28;20449;-63
2022/07/10 10:39:20;;;;;;;1.90;1.70;;;15.10;99.90;;;;;;5112779;28;20453;-63
2022/07/10 10:41:53;;;;;;;1.93;1.60;;;15.10;99.90;;;;;;5121140;28;20573;-63
2022/07/10 10:44:31;;;;;;;4.10;1.63;;;15.10;99.90;;;;;;5114852;28;20442;-64
2022/07/10 10:47:09;;;;;;;1.70;1.60;;;15.00;99.90;;;;;;5125902;28;20449;-63
2022/07/10 10:49:56;;;;;;;1.83;1.73;;;15.00;99.90;;;;;;5125833;28;20460;-63
2022/07/10 10:52:27;;;;;;;2.33;1.97;;;14.90;99.90;;;;;;5125176;28;20446;-63
2022/07/10 10:55:14;;;;;;;1.90;1.67;;;14.90;99.90;;;;;;5125782;28;20580;-63
2022/07/10 10:57:52;;;;;;;3.00;1.83;;;14.80;99.90;;;;;;5125601;28;20457;-63
2022/07/10 11:00:40;;;;;;;2.07;1.60;;;14.80;99.90;;;;;;5125363;28;20484;-64
2022/07/10 11:03:25;;;;;;;2.10;1.90;;;14.80;99.90;;;;;;5092499;28;20471;-64
2022/07/10 11:05:56;;;;;;;2.30;2.10;;;14.70;99.90;;;;;;5124711;28;20449;-64
2022/07/10 11:08:41;;;;;;;1.80;1.70;;;14.70;99.90;;;;;;5126335;28;20461;-64
2022/07/10 11:11:48;;;;;;;2.50;2.00;;;14.80;99.90;;;;;;5125602;28;20465;-64
2022/07/10 11:14:19;;;;;;;2.20;1.73;;;14.70;99.90;;;;;;5125647;28;20445;-64
2022/07/10 11:16:50;;;;;;;1.93;1.53;;;14.70;99.90;;;;;;5125564;28;20452;-64
2022/07/10 11:19:29;;;;;;;1.90;1.80;;;14.60;99.90;;;;;;5108044;28;20450;-64
2022/07/10 11:22:37;;;;;;;1.97;1.67;;;14.60;99.90;;;;;;5124534;28;20490;-64
2022/07/10 11:25:42;;;;;;;1.80;1.57;;;14.60;99.90;;;;;;5125017;28;20449;-64
2022/07/10 11:28:13;;;;;;;2.40;2.20;;;14.60;99.90;;;;;;5125105;28;20424;-64
2022/07/10 11:30:48;;;;;;;2.30;2.07;;;14.50;99.90;;;;;;5124978;28;20460;-64
2022/07/10 11:33:20;;;;;;;2.20;2.00;;;14.50;99.90;;;;;;5124525;28;20475;-64
2022/07/10 11:35:54;;;;;;;1.77;1.47;;;14.40;99.90;;;;;;5124398;28;20475;-64
2022/07/10 11:38:26;;;;;;;1.53;1.43;;;14.40;99.90;;;;;;5125625;28;20446;-64
2022/07/10 11:40:57;;;;;;;1.80;1.70;;;14.40;99.90;;;;;;5124703;28;20524;-64
2022/07/10 11:43:28;;;;;;;1.83;1.73;;;14.40;99.90;;;;;;5111481;28;20454;-64
2022/07/10 11:46:01;;;;;;;1.97;1.77;;;14.30;99.90;;;;;;5124701;28;20452;-64
2022/07/10 11:48:39;;;;;;;2.43;2.00;;;14.30;99.90;;;;;;5125398;28;20458;-64
2022/07/10 11:51:24;;;;;;;1.90;1.70;;;14.40;99.90;;;;;;5124293;28;20788;-64
2022/07/10 11:53:57;;;;;;;2.33;2.13;;;14.40;99.90;;;;;;5124570;28;20547;-64
2022/07/10 11:56:29;;;;;;;2.53;1.90;;;14.30;99.90;;;;;;5124009;28;20454;-64
2022/07/10 11:59:01;;;;;;;2.40;2.20;;;14.30;99.90;;;;;;5125135;28;20481;-64
2022/07/10 12:01:34;;;;;;;2.77;1.97;;;14.30;99.90;;;;;;5124356;28;20456;-63
2022/07/10 12:04:06;;;;;;;2.03;1.80;;;14.30;99.90;;;;;;5124954;28;20465;-64
2022/07/10 12:06:40;;;;;;;2.97;2.23;;;14.30;99.90;;;;;;5123639;28;20521;-64
2022/07/10 12:09:13;;;;;;;2.27;1.90;;;14.20;99.90;;;;;;5124899;28;20443;-64
2022/07/10 12:11:46;;;;;;;2.40;2.20;;;14.30;99.90;;;;;;5121412;28;20445;-64
2022/07/10 12:14:18;;;;;;;2.27;2.07;;;14.20;99.90;;;;;;5124825;28;20464;-64
2022/07/10 12:16:51;;;;;;;2.23;2.03;;;14.20;99.90;;;;;;5124163;28;20460;-64
2022/07/10 12:19:24;;;;;;;2.20;2.00;;;14.30;99.90;;;;;;5124624;28;20467;-64
2022/07/10 12:21:57;;;;;;;2.83;2.13;;;14.10;99.90;;;;;;5116470;28;20952;-64
2022/07/10 12:24:28;;;;;;;2.50;1.90;;;14.20;99.90;;;;;;5125008;28;20598;-64
2022/07/10 12:26:59;;;;;;;2.97;2.13;;;14.20;99.90;;;;;;5124015;28;20534;-64
2022/07/10 12:29:31;;;;;;;2.40;1.70;;;14.10;99.90;;;;;;5123914;28;20445;-64
2022/07/10 12:32:02;;;;;;;2.93;2.27;;;14.10;99.90;;;;;;5123526;28;20464;-64
2022/07/10 12:34:37;;;;;;;1.80;1.60;;;14.10;99.90;;;;;;5124015;27;20461;-64
2022/07/10 12:37:11;;;;;;;2.07;1.70;;;14.10;99.90;;;;;;5122806;27;20455;-64
2022/07/10 12:39:49;;;;;;;3.03;2.30;;;14.10;99.90;;;;;;5124716;28;20460;-64
2022/07/10 12:42:28;;;;;;;2.80;2.10;;;14.10;99.90;;;;;;5124153;28;20572;-64
2022/07/10 12:45:12;;;;;;;2.47;2.20;;;14.00;99.90;;;;;;5124250;28;20820;-64
2022/07/10 12:47:46;;;;;;;1.73;1.60;;;14.00;99.90;;;;;;5124157;28;20454;-64
2022/07/10 12:50:18;;;;;;;2.37;1.70;;;14.00;99.90;;;;;;5123265;28;20457;-63
2022/07/10 12:52:50;;;;;;;4.03;2.30;;;14.00;99.90;;;;;;5124033;28;20470;-63
2022/07/10 12:55:25;;;;;;;2.00;1.80;;;14.10;99.90;;;;;;5123245;28;20486;-64
2022/07/10 12:57:57;;;;;;;2.00;1.90;;;14.00;99.90;;;;;;5123695;28;20455;-63
2022/07/10 13:00:33;;;;;;;2.40;2.07;;;14.10;99.90;;;;;;5118570;27;20460;-63
2022/07/10 13:03:05;;;;;;;2.90;2.33;;;14.20;99.90;;;;;;5123491;28;20941;-63
2022/07/10 13:05:38;;;;;;;3.43;2.43;;;14.20;99.90;;;;;;5101335;28;20460;-63
2022/07/10 13:08:13;;;;;;;2.87;2.57;;;14.30;99.90;;;;;;5123871;28;20521;-64
2022/07/10 13:10:45;;;;;;;2.70;2.07;;;14.30;99.90;;;;;;5123362;28;20502;-64
2022/07/10 13:13:16;;;;;;;2.40;2.10;;;14.30;99.90;;;;;;5123412;28;20443;-63
2022/07/10 13:15:49;;;;;;;2.23;2.03;;;14.30;99.90;;;;;;5123421;28;20751;-64
2022/07/10 13:18:22;;;;;;;2.83;2.50;;;14.40;99.90;;;;;;5123118;28;20522;-64
2022/07/10 13:20:54;;;;;;;2.50;2.20;;;14.50;99.90;;;;;;5121549;28;20622;-63
2022/07/10 13:23:32;;;;;;;4.00;2.17;;;14.50;99.90;;;;;;5122424;28;20457;-63
2022/07/10 13:26:03;;;;;;;2.37;2.13;;;14.50;99.90;;;;;;5122627;28;20449;-64